KOAK/OAK METAR and TAF weather

Enter ICAO airport designator
Station Type Date Time Source
KOAK METAR 2019/08/19 07:53 UTC NOAA

KOAK 190753Z 24008KT 10SM FEW014 OVC022 17/13 A2994 RMK AO2 SLP137 T01720133 402440161


Station Type Date Time Source
KOAK Decoded METAR 2019/08/19 07:53 UTC NOAA

Station name not available
Aug 19, 2019 - 03:53 AM EDT / 2019.08.19 0753 UTC
Wind: from the WSW (240 degrees) at 9 MPH (8 KT):0
Visibility: 10 mile(s):0
Sky conditions: overcast
Temperature: 63.0 F (17.2 C)
Dew Point: 55.9 F (13.3 C)
Relative Humidity: 77%
Pressure (altimeter): 29.94 in. Hg (1013 hPa)
ob: KOAK 190753Z 24008KT 10SM FEW014 OVC022 17/13 A2994 RMK AO2 SLP137 T01720133 402440161
cycle: 8

Station Type Date Time Source
KOAK TAF 2019/08/19 06:22 UTC NOAA

TAF KOAK 190520Z 1906/2012 23006KT P6SM SCT012
FM190700 23006KT P6SM BKN012
FM191700 26006KT P6SM SCT015
FM192100 28012KT P6SM FEW015
FM200400 26008KT P6SM SCT015
FM200600 26006KT P6SM BKN015

Example: see airport list